Terminal Aerodrome Forecast
Issued by NWS

Current Version | Previous Version | Graphics & Text | Print | Product List | Glossary On
Versions: 1 2 3 4 5 6 7 8 9 10 11 12 13 14 15 16 17 18 19 20 21 22 23 24 25
000
FTUS41 KILN 240540
TAFLCK
TAF
KLCK 240540Z 2406/2506 31009KT P6SM OVC020
     FM240900 36005KT P6SM VCSH OVC012
     FM241300 05008KT 5SM -RA OVC015
     FM242000 08010KT P6SM VCSH OVC022
      TEMPO 2501/2504 3SM -SHRA SCT012 OVC025=

USA.gov is the U.S. government's official web portal to all federal, state and local government web resources and services.